sensor_id;sensor_type;location;lat;lon;timestamp;temperature;humidity
60473;DHT22;46318;52.716;6.444;2022-09-30T00:01:47;10.80;99.90
60473;DHT22;46318;52.716;6.444;2022-09-30T00:04:20;10.80;99.90
60473;DHT22;46318;52.716;6.444;2022-09-30T00:06:47;10.80;99.90
60473;DHT22;46318;52.716;6.444;2022-09-30T00:09:14;10.80;99.90
60473;DHT22;46318;52.716;6.444;2022-09-30T00:11:41;10.80;99.90
60473;DHT22;46318;52.716;6.444;2022-09-30T00:14:17;10.80;99.90
60473;DHT22;46318;52.716;6.444;2022-09-30T00:16:45;10.80;99.90
60473;DHT22;46318;52.716;6.444;2022-09-30T00:19:12;10.70;99.90
60473;DHT22;46318;52.716;6.444;2022-09-30T00:21:38;10.80;99.90
60473;DHT22;46318;52.716;6.444;2022-09-30T00:24:05;10.70;99.90
60473;DHT22;46318;52.716;6.444;2022-09-30T00:26:31;10.70;99.90
60473;DHT22;46318;52.716;6.444;2022-09-30T00:28:59;10.70;99.90
60473;DHT22;46318;52.716;6.444;2022-09-30T00:31:28;10.70;99.90
60473;DHT22;46318;52.716;6.444;2022-09-30T00:33:56;10.70;99.90
60473;DHT22;46318;52.716;6.444;2022-09-30T00:39:08;10.60;99.90
60473;DHT22;46318;52.716;6.444;2022-09-30T00:41:36;10.60;99.90
60473;DHT22;46318;52.716;6.444;2022-09-30T00:58:12;10.40;99.90
60473;DHT22;46318;52.716;6.444;2022-09-30T01:00:40;10.40;99.90
60473;DHT22;46318;52.716;6.444;2022-09-30T01:03:07;10.40;99.90
60473;DHT22;46318;52.716;6.444;2022-09-30T01:05:33;10.40;99.90
60473;DHT22;46318;52.716;6.444;2022-09-30T01:08:02;10.30;99.90
60473;DHT22;46318;52.716;6.444;2022-09-30T01:10:30;10.20;99.90
60473;DHT22;46318;52.716;6.444;2022-09-30T01:12:56;10.20;99.90
60473;DHT22;46318;52.716;6.444;2022-09-30T01:19:07;10.20;99.90
60473;DHT22;46318;52.716;6.444;2022-09-30T01:40:27;9.90;99.90
60473;DHT22;46318;52.716;6.444;2022-09-30T01:45:56;9.80;99.90
60473;DHT22;46318;52.716;6.444;2022-09-30T01:48:53;9.70;99.90
60473;DHT22;46318;52.716;6.444;2022-09-30T01:51:34;9.70;99.90
60473;DHT22;46318;52.716;6.444;2022-09-30T01:54:12;9.70;99.90
60473;DHT22;46318;52.716;6.444;2022-09-30T01:56:52;9.60;99.90
60473;DHT22;46318;52.716;6.444;2022-09-30T01:59:32;9.60;99.90
60473;DHT22;46318;52.716;6.444;2022-09-30T02:02:09;9.60;99.90
60473;DHT22;46318;52.716;6.444;2022-09-30T02:05:21;9.50;99.90
60473;DHT22;46318;52.716;6.444;2022-09-30T02:08:01;9.50;99.90
60473;DHT22;46318;52.716;6.444;2022-09-30T02:10:41;9.40;99.90
60473;DHT22;46318;52.716;6.444;2022-09-30T02:13:18;9.40;99.90
60473;DHT22;46318;52.716;6.444;2022-09-30T02:15:53;9.40;99.90
60473;DHT22;46318;52.716;6.444;2022-09-30T02:18:33;9.30;99.90
60473;DHT22;46318;52.716;6.444;2022-09-30T02:21:07;9.30;99.90
60473;DHT22;46318;52.716;6.444;2022-09-30T02:23:35;9.30;99.90
60473;DHT22;46318;52.716;6.444;2022-09-30T02:26:21;9.20;99.90
60473;DHT22;46318;52.716;6.444;2022-09-30T02:29:06;9.20;99.90
60473;DHT22;46318;52.716;6.444;2022-09-30T02:31:38;9.20;99.90
60473;DHT22;46318;52.716;6.444;2022-09-30T02:34:20;9.20;99.90
60473;DHT22;46318;52.716;6.444;2022-09-30T02:40:03;9.10;99.90
60473;DHT22;46318;52.716;6.444;2022-09-30T02:42:33;9.00;99.90
60473;DHT22;46318;52.716;6.444;2022-09-30T02:45:06;9.00;99.90
60473;DHT22;46318;52.716;6.444;2022-09-30T02:50:50;8.90;99.90
60473;DHT22;46318;52.716;6.444;2022-09-30T02:53:39;8.90;99.90
60473;DHT22;46318;52.716;6.444;2022-09-30T02:58:50;8.80;99.90
60473;DHT22;46318;52.716;6.444;2022-09-30T03:01:16;8.80;99.90
60473;DHT22;46318;52.716;6.444;2022-09-30T03:03:52;8.70;99.90
60473;DHT22;46318;52.716;6.444;2022-09-30T03:06:20;8.70;99.90
60473;DHT22;46318;52.716;6.444;2022-09-30T03:08:46;8.70;99.90
60473;DHT22;46318;52.716;6.444;2022-09-30T03:11:22;8.70;99.90
60473;DHT22;46318;52.716;6.444;2022-09-30T03:26:04;8.50;99.90
60473;DHT22;46318;52.716;6.444;2022-09-30T03:28:37;8.50;99.90
60473;DHT22;46318;52.716;6.444;2022-09-30T03:34:20;8.40;99.90
60473;DHT22;46318;52.716;6.444;2022-09-30T03:37:26;8.40;99.90
60473;DHT22;46318;52.716;6.444;2022-09-30T03:40:04;8.40;99.90
60473;DHT22;46318;52.716;6.444;2022-09-30T03:42:44;8.30;99.90
60473;DHT22;46318;52.716;6.444;2022-09-30T03:45:28;8.30;99.90
60473;DHT22;46318;52.716;6.444;2022-09-30T03:48:03;8.20;99.90
60473;DHT22;46318;52.716;6.444;2022-09-30T03:50:32;8.20;99.90
60473;DHT22;46318;52.716;6.444;2022-09-30T03:53:00;8.20;99.90
60473;DHT22;46318;52.716;6.444;2022-09-30T03:55:27;8.20;99.90
60473;DHT22;46318;52.716;6.444;2022-09-30T03:57:53;8.10;99.90
60473;DHT22;46318;52.716;6.444;2022-09-30T04:00:19;8.10;99.90
60473;DHT22;46318;52.716;6.444;2022-09-30T04:02:48;8.10;99.90
60473;DHT22;46318;52.716;6.444;2022-09-30T04:05:14;8.10;99.90
60473;DHT22;46318;52.716;6.444;2022-09-30T04:07:41;8.00;99.90
60473;DHT22;46318;52.716;6.444;2022-09-30T04:10:07;8.00;99.90
60473;DHT22;46318;52.716;6.444;2022-09-30T04:12:33;8.00;99.90
60473;DHT22;46318;52.716;6.444;2022-09-30T04:14:59;7.90;99.90
60473;DHT22;46318;52.716;6.444;2022-09-30T04:17:26;7.90;99.90
60473;DHT22;46318;52.716;6.444;2022-09-30T04:19:51;7.90;99.90
60473;DHT22;46318;52.716;6.444;2022-09-30T04:22:17;7.90;99.90
60473;DHT22;46318;52.716;6.444;2022-09-30T04:24:43;7.90;99.90
60473;DHT22;46318;52.716;6.444;2022-09-30T04:27:09;7.80;99.90
60473;DHT22;46318;52.716;6.444;2022-09-30T04:29:35;7.80;99.90
60473;DHT22;46318;52.716;6.444;2022-09-30T04:32:00;7.80;99.90
60473;DHT22;46318;52.716;6.444;2022-09-30T04:34:26;7.70;99.90
60473;DHT22;46318;52.716;6.444;2022-09-30T04:36:52;7.70;99.90
60473;DHT22;46318;52.716;6.444;2022-09-30T04:39:18;7.70;99.90
60473;DHT22;46318;52.716;6.444;2022-09-30T04:41:43;7.70;99.90
60473;DHT22;46318;52.716;6.444;2022-09-30T04:44:09;7.60;99.90
60473;DHT22;46318;52.716;6.444;2022-09-30T04:46:35;7.60;99.90
60473;DHT22;46318;52.716;6.444;2022-09-30T04:49:03;7.60;99.90
60473;DHT22;46318;52.716;6.444;2022-09-30T04:51:29;7.60;99.90
60473;DHT22;46318;52.716;6.444;2022-09-30T04:53:55;7.60;99.90
60473;DHT22;46318;52.716;6.444;2022-09-30T04:56:21;7.50;99.90
60473;DHT22;46318;52.716;6.444;2022-09-30T04:58:47;7.50;99.90
60473;DHT22;46318;52.716;6.444;2022-09-30T05:01:15;7.50;99.90
60473;DHT22;46318;52.716;6.444;2022-09-30T05:03:42;7.50;99.90
60473;DHT22;46318;52.716;6.444;2022-09-30T05:06:10;7.40;99.90
60473;DHT22;46318;52.716;6.444;2022-09-30T05:08:37;7.40;99.90
60473;DHT22;46318;52.716;6.444;2022-09-30T05:11:05;7.40;99.90
60473;DHT22;46318;52.716;6.444;2022-09-30T05:13:37;7.40;99.90
60473;DHT22;46318;52.716;6.444;2022-09-30T05:16:05;7.40;99.90
60473;DHT22;46318;52.716;6.444;2022-09-30T05:18:31;7.30;99.90
60473;DHT22;46318;52.716;6.444;2022-09-30T05:21:02;7.40;99.90
60473;DHT22;46318;52.716;6.444;2022-09-30T05:23:29;7.30;99.90
60473;DHT22;46318;52.716;6.444;2022-09-30T05:25:57;7.30;99.90
60473;DHT22;46318;52.716;6.444;2022-09-30T05:28:24;7.30;99.90
60473;DHT22;46318;52.716;6.444;2022-09-30T05:31:04;7.30;99.90
60473;DHT22;46318;52.716;6.444;2022-09-30T05:33:33;7.30;99.90
60473;DHT22;46318;52.716;6.444;2022-09-30T05:36:05;7.20;99.90
60473;DHT22;46318;52.716;6.444;2022-09-30T05:38:34;7.20;99.90
60473;DHT22;46318;52.716;6.444;2022-09-30T05:41:08;7.20;99.90
60473;DHT22;46318;52.716;6.444;2022-09-30T05:43:38;7.20;99.90
60473;DHT22;46318;52.716;6.444;2022-09-30T05:46:06;7.10;99.90
60473;DHT22;46318;52.716;6.444;2022-09-30T05:48:33;7.10;99.90
60473;DHT22;46318;52.716;6.444;2022-09-30T05:50:59;7.10;99.90
60473;DHT22;46318;52.716;6.444;2022-09-30T05:53:27;7.10;99.90
60473;DHT22;46318;52.716;6.444;2022-09-30T05:55:53;7.10;99.90
60473;DHT22;46318;52.716;6.444;2022-09-30T05:58:20;7.10;99.90
60473;DHT22;46318;52.716;6.444;2022-09-30T06:00:47;7.10;99.90
60473;DHT22;46318;52.716;6.444;2022-09-30T06:03:14;7.10;99.90
60473;DHT22;46318;52.716;6.444;2022-09-30T06:05:40;7.10;99.90
60473;DHT22;46318;52.716;6.444;2022-09-30T06:08:06;7.10;99.90
60473;DHT22;46318;52.716;6.444;2022-09-30T06:10:34;7.00;99.90
60473;DHT22;46318;52.716;6.444;2022-09-30T06:13:04;7.00;99.90
60473;DHT22;46318;52.716;6.444;2022-09-30T06:15:30;7.00;99.90
60473;DHT22;46318;52.716;6.444;2022-09-30T06:17:56;7.00;99.90
60473;DHT22;46318;52.716;6.444;2022-09-30T06:20:22;7.00;99.90
60473;DHT22;46318;52.716;6.444;2022-09-30T06:22:48;7.00;99.90
60473;DHT22;46318;52.716;6.444;2022-09-30T06:25:14;7.00;99.90
60473;DHT22;46318;52.716;6.444;2022-09-30T06:27:43;7.00;99.90
60473;DHT22;46318;52.716;6.444;2022-09-30T06:30:12;7.00;99.90
60473;DHT22;46318;52.716;6.444;2022-09-30T06:32:38;7.00;99.90
60473;DHT22;46318;52.716;6.444;2022-09-30T06:35:04;7.00;99.90
60473;DHT22;46318;52.716;6.444;2022-09-30T06:37:30;7.00;99.90
60473;DHT22;46318;52.716;6.444;2022-09-30T06:39:56;7.00;99.90
60473;DHT22;46318;52.716;6.444;2022-09-30T06:42:22;7.00;99.90
60473;DHT22;46318;52.716;6.444;2022-09-30T06:44:49;7.10;99.90
60473;DHT22;46318;52.716;6.444;2022-09-30T06:47:16;7.10;99.90
60473;DHT22;46318;52.716;6.444;2022-09-30T06:49:43;7.10;99.90
60473;DHT22;46318;52.716;6.444;2022-09-30T06:52:09;7.10;99.90
60473;DHT22;46318;52.716;6.444;2022-09-30T06:54:41;7.20;99.90
60473;DHT22;46318;52.716;6.444;2022-09-30T06:57:08;7.20;99.90
60473;DHT22;46318;52.716;6.444;2022-09-30T06:59:34;7.20;99.90
60473;DHT22;46318;52.716;6.444;2022-09-30T07:02:00;7.20;99.90
60473;DHT22;46318;52.716;6.444;2022-09-30T07:04:25;7.30;99.90
60473;DHT22;46318;52.716;6.444;2022-09-30T07:06:51;7.30;99.90
60473;DHT22;46318;52.716;6.444;2022-09-30T07:09:17;7.40;99.90
60473;DHT22;46318;52.716;6.444;2022-09-30T07:11:43;7.40;99.90
60473;DHT22;46318;52.716;6.444;2022-09-30T07:14:09;7.50;99.90
60473;DHT22;46318;52.716;6.444;2022-09-30T07:16:37;7.50;99.90
60473;DHT22;46318;52.716;6.444;2022-09-30T07:19:04;7.60;99.90
60473;DHT22;46318;52.716;6.444;2022-09-30T07:21:31;7.60;99.90
60473;DHT22;46318;52.716;6.444;2022-09-30T07:23:58;7.70;99.90
60473;DHT22;46318;52.716;6.444;2022-09-30T07:26:25;7.70;99.90
60473;DHT22;46318;52.716;6.444;2022-09-30T07:28:52;7.80;99.90
60473;DHT22;46318;52.716;6.444;2022-09-30T07:31:21;7.90;99.90
60473;DHT22;46318;52.716;6.444;2022-09-30T07:33:48;7.90;99.90
60473;DHT22;46318;52.716;6.444;2022-09-30T07:36:19;8.00;99.90
60473;DHT22;46318;52.716;6.444;2022-09-30T07:38:51;8.10;99.90
60473;DHT22;46318;52.716;6.444;2022-09-30T07:41:20;8.20;99.90
60473;DHT22;46318;52.716;6.444;2022-09-30T07:43:52;8.30;99.90
60473;DHT22;46318;52.716;6.444;2022-09-30T07:46:24;8.40;99.90
60473;DHT22;46318;52.716;6.444;2022-09-30T07:48:53;8.40;99.90
60473;DHT22;46318;52.716;6.444;2022-09-30T07:51:30;8.50;99.90
60473;DHT22;46318;52.716;6.444;2022-09-30T07:54:05;8.60;99.90
60473;DHT22;46318;52.716;6.444;2022-09-30T07:56:33;8.70;99.90
60473;DHT22;46318;52.716;6.444;2022-09-30T07:59:03;8.80;99.90
60473;DHT22;46318;52.716;6.444;2022-09-30T08:01:29;8.90;99.90
60473;DHT22;46318;52.716;6.444;2022-09-30T08:04:02;9.00;99.90
60473;DHT22;46318;52.716;6.444;2022-09-30T08:06:34;9.10;99.90
60473;DHT22;46318;52.716;6.444;2022-09-30T08:09:02;9.30;99.90
60473;DHT22;46318;52.716;6.444;2022-09-30T08:11:32;9.40;99.90
60473;DHT22;46318;52.716;6.444;2022-09-30T08:13:59;9.50;99.90
60473;DHT22;46318;52.716;6.444;2022-09-30T08:16:25;9.60;99.90
60473;DHT22;46318;52.716;6.444;2022-09-30T08:19:00;9.60;99.90
60473;DHT22;46318;52.716;6.444;2022-09-30T08:21:27;9.80;99.90
60473;DHT22;46318;52.716;6.444;2022-09-30T08:23:53;9.90;99.90
60473;DHT22;46318;52.716;6.444;2022-09-30T08:26:19;10.00;99.90
60473;DHT22;46318;52.716;6.444;2022-09-30T08:28:47;10.10;99.90
60473;DHT22;46318;52.716;6.444;2022-09-30T08:31:15;10.20;99.90
60473;DHT22;46318;52.716;6.444;2022-09-30T08:33:43;10.40;99.90
60473;DHT22;46318;52.716;6.444;2022-09-30T08:38:44;10.60;99.90
60473;DHT22;46318;52.716;6.444;2022-09-30T08:50:29;11.00;99.90
60473;DHT22;46318;52.716;6.444;2022-09-30T08:53:30;11.10;99.90
60473;DHT22;46318;52.716;6.444;2022-09-30T08:55:59;11.20;99.90
60473;DHT22;46318;52.716;6.444;2022-09-30T08:58:36;11.30;99.90
60473;DHT22;46318;52.716;6.444;2022-09-30T09:01:17;11.50;99.90
60473;DHT22;46318;52.716;6.444;2022-09-30T09:03:45;11.60;99.90
60473;DHT22;46318;52.716;6.444;2022-09-30T09:09:50;11.80;99.90
60473;DHT22;46318;52.716;6.444;2022-09-30T09:15:20;12.00;99.90
60473;DHT22;46318;52.716;6.444;2022-09-30T09:20:58;12.20;99.90
60473;DHT22;46318;52.716;6.444;2022-09-30T09:23:30;12.30;99.90
60473;DHT22;46318;52.716;6.444;2022-09-30T09:25:58;12.40;99.90
60473;DHT22;46318;52.716;6.444;2022-09-30T09:28:45;12.50;99.90
60473;DHT22;46318;52.716;6.444;2022-09-30T09:31:18;12.60;99.90
60473;DHT22;46318;52.716;6.444;2022-09-30T09:33:47;12.70;99.90
60473;DHT22;46318;52.716;6.444;2022-09-30T09:44:59;13.10;99.90
60473;DHT22;46318;52.716;6.444;2022-09-30T09:47:29;13.20;99.90
60473;DHT22;46318;52.716;6.444;2022-09-30T09:49:58;13.40;99.90
60473;DHT22;46318;52.716;6.444;2022-09-30T09:55:05;13.50;99.90
60473;DHT22;46318;52.716;6.444;2022-09-30T09:57:32;13.60;99.90
60473;DHT22;46318;52.716;6.444;2022-09-30T10:05:34;14.00;99.90
60473;DHT22;46318;52.716;6.444;2022-09-30T10:08:18;14.10;99.90
60473;DHT22;46318;52.716;6.444;2022-09-30T10:10:51;14.10;99.90
60473;DHT22;46318;52.716;6.444;2022-09-30T10:15:59;14.30;99.90
60473;DHT22;46318;52.716;6.444;2022-09-30T10:18:37;14.40;99.90
60473;DHT22;46318;52.716;6.444;2022-09-30T10:21:20;14.50;99.90
60473;DHT22;46318;52.716;6.444;2022-09-30T10:23:47;14.60;99.80
60473;DHT22;46318;52.716;6.444;2022-09-30T10:28:53;14.80;99.30
60473;DHT22;46318;52.716;6.444;2022-09-30T10:31:29;14.90;98.90
60473;DHT22;46318;52.716;6.444;2022-09-30T10:37:06;15.10;98.10
60473;DHT22;46318;52.716;6.444;2022-09-30T10:39:43;15.10;98.10
60473;DHT22;46318;52.716;6.444;2022-09-30T10:42:24;15.20;97.80
60473;DHT22;46318;52.716;6.444;2022-09-30T10:44:54;15.30;97.50
60473;DHT22;46318;52.716;6.444;2022-09-30T10:47:23;15.40;97.40
60473;DHT22;46318;52.716;6.444;2022-09-30T10:52:40;15.60;96.90
60473;DHT22;46318;52.716;6.444;2022-09-30T10:57:54;15.70;95.90
60473;DHT22;46318;52.716;6.444;2022-09-30T11:00:24;15.70;96.00
60473;DHT22;46318;52.716;6.444;2022-09-30T11:03:07;15.70;95.90
60473;DHT22;46318;52.716;6.444;2022-09-30T11:05:43;15.80;96.00
60473;DHT22;46318;52.716;6.444;2022-09-30T11:08:17;15.90;95.70
60473;DHT22;46318;52.716;6.444;2022-09-30T11:11:03;15.90;95.40
60473;DHT22;46318;52.716;6.444;2022-09-30T11:19:38;16.20;94.60
60473;DHT22;46318;52.716;6.444;2022-09-30T11:22:28;16.30;94.50
60473;DHT22;46318;52.716;6.444;2022-09-30T11:24:59;16.50;94.40
60473;DHT22;46318;52.716;6.444;2022-09-30T11:30:21;16.70;93.50
60473;DHT22;46318;52.716;6.444;2022-09-30T11:35:54;16.80;93.30
60473;DHT22;46318;52.716;6.444;2022-09-30T11:45:30;17.10;92.80
60473;DHT22;46318;52.716;6.444;2022-09-30T11:52:04;17.20;91.80
60473;DHT22;46318;52.716;6.444;2022-09-30T11:58:07;17.20;91.90
60473;DHT22;46318;52.716;6.444;2022-09-30T12:00:38;17.30;91.70
60473;DHT22;46318;52.716;6.444;2022-09-30T12:05:47;17.50;91.00
60473;DHT22;46318;52.716;6.444;2022-09-30T12:08:26;17.60;90.90
60473;DHT22;46318;52.716;6.444;2022-09-30T12:11:13;17.70;90.30
60473;DHT22;46318;52.716;6.444;2022-09-30T12:13:51;17.70;90.20
60473;DHT22;46318;52.716;6.444;2022-09-30T12:16:23;17.90;90.20
60473;DHT22;46318;52.716;6.444;2022-09-30T12:18:57;18.00;90.10
60473;DHT22;46318;52.716;6.444;2022-09-30T12:21:39;18.00;89.40
60473;DHT22;46318;52.716;6.444;2022-09-30T12:24:23;18.10;89.70
60473;DHT22;46318;52.716;6.444;2022-09-30T12:26:52;18.20;89.30
60473;DHT22;46318;52.716;6.444;2022-09-30T12:29:41;18.30;89.20
60473;DHT22;46318;52.716;6.444;2022-09-30T12:43:35;18.50;87.50
60473;DHT22;46318;52.716;6.444;2022-09-30T12:46:58;18.60;86.30
60473;DHT22;46318;52.716;6.444;2022-09-30T12:49:32;18.70;85.50
60473;DHT22;46318;52.716;6.444;2022-09-30T12:52:03;18.80;84.50
60473;DHT22;46318;52.716;6.444;2022-09-30T12:54:38;18.80;84.00
60473;DHT22;46318;52.716;6.444;2022-09-30T12:57:07;18.90;84.00
60473;DHT22;46318;52.716;6.444;2022-09-30T12:59:37;18.90;83.80
60473;DHT22;46318;52.716;6.444;2022-09-30T13:02:34;19.00;83.70
60473;DHT22;46318;52.716;6.444;2022-09-30T13:13:20;19.20;80.00
60473;DHT22;46318;52.716;6.444;2022-09-30T13:15:51;19.20;79.60
60473;DHT22;46318;52.716;6.444;2022-09-30T13:20:50;19.30;79.30
60473;DHT22;46318;52.716;6.444;2022-09-30T13:23:40;19.40;78.30
60473;DHT22;46318;52.716;6.444;2022-09-30T13:28:49;19.20;77.50
60473;DHT22;46318;52.716;6.444;2022-09-30T13:31:21;19.10;77.10
60473;DHT22;46318;52.716;6.444;2022-09-30T13:36:57;19.20;77.10
60473;DHT22;46318;52.716;6.444;2022-09-30T13:47:41;19.20;75.90
60473;DHT22;46318;52.716;6.444;2022-09-30T13:53:00;19.10;74.50
60473;DHT22;46318;52.716;6.444;2022-09-30T13:55:35;19.00;76.00
60473;DHT22;46318;52.716;6.444;2022-09-30T14:04:37;18.90;75.50
60473;DHT22;46318;52.716;6.444;2022-09-30T14:13:41;18.70;75.30
60473;DHT22;46318;52.716;6.444;2022-09-30T14:21:56;18.40;76.70
60473;DHT22;46318;52.716;6.444;2022-09-30T14:24:32;18.30;77.10
60473;DHT22;46318;52.716;6.444;2022-09-30T14:30:23;18.20;77.40
60473;DHT22;46318;52.716;6.444;2022-09-30T14:32:55;18.20;78.20
60473;DHT22;46318;52.716;6.444;2022-09-30T14:35:24;18.20;78.30
60473;DHT22;46318;52.716;6.444;2022-09-30T14:38:08;18.10;79.00
60473;DHT22;46318;52.716;6.444;2022-09-30T14:40:40;18.10;79.70
60473;DHT22;46318;52.716;6.444;2022-09-30T14:43:21;18.10;80.20
60473;DHT22;46318;52.716;6.444;2022-09-30T14:45:53;18.10;79.60
60473;DHT22;46318;52.716;6.444;2022-09-30T14:48:27;18.00;79.80
60473;DHT22;46318;52.716;6.444;2022-09-30T14:51:05;17.90;79.20
60473;DHT22;46318;52.716;6.444;2022-09-30T14:53:51;17.90;79.20
60473;DHT22;46318;52.716;6.444;2022-09-30T14:56:34;17.90;78.20
60473;DHT22;46318;52.716;6.444;2022-09-30T14:59:15;17.80;79.50
60473;DHT22;46318;52.716;6.444;2022-09-30T15:01:42;17.80;80.80
60473;DHT22;46318;52.716;6.444;2022-09-30T15:04:18;17.70;80.00
60473;DHT22;46318;52.716;6.444;2022-09-30T15:06:49;17.70;80.80
60473;DHT22;46318;52.716;6.444;2022-09-30T15:09:33;17.80;81.00
60473;DHT22;46318;52.716;6.444;2022-09-30T15:12:16;17.70;81.70
60473;DHT22;46318;52.716;6.444;2022-09-30T15:14:50;17.70;80.70
60473;DHT22;46318;52.716;6.444;2022-09-30T15:17:21;17.70;81.20
60473;DHT22;46318;52.716;6.444;2022-09-30T15:19:51;17.60;81.80
60473;DHT22;46318;52.716;6.444;2022-09-30T15:22:18;17.60;81.90
60473;DHT22;46318;52.716;6.444;2022-09-30T15:24:46;17.60;82.10
60473;DHT22;46318;52.716;6.444;2022-09-30T15:29:57;17.50;83.20
60473;DHT22;46318;52.716;6.444;2022-09-30T15:32:27;17.50;83.20
60473;DHT22;46318;52.716;6.444;2022-09-30T15:34:54;17.40;83.20
60473;DHT22;46318;52.716;6.444;2022-09-30T15:37:27;17.40;83.60
60473;DHT22;46318;52.716;6.444;2022-09-30T15:39:59;17.30;83.40
60473;DHT22;46318;52.716;6.444;2022-09-30T15:42:54;17.20;83.60
60473;DHT22;46318;52.716;6.444;2022-09-30T15:50:40;17.10;85.20
60473;DHT22;46318;52.716;6.444;2022-09-30T15:53:20;17.10;85.70
60473;DHT22;46318;52.716;6.444;2022-09-30T15:55:49;17.10;85.40
60473;DHT22;46318;52.716;6.444;2022-09-30T16:06:28;17.00;86.70
60473;DHT22;46318;52.716;6.444;2022-09-30T16:12:05;16.90;87.00
60473;DHT22;46318;52.716;6.444;2022-09-30T16:14:58;16.90;87.20
60473;DHT22;46318;52.716;6.444;2022-09-30T16:17:34;16.90;87.50
60473;DHT22;46318;52.716;6.444;2022-09-30T16:20:23;16.80;87.50
60473;DHT22;46318;52.716;6.444;2022-09-30T16:22:52;16.80;88.10
60473;DHT22;46318;52.716;6.444;2022-09-30T16:25:30;16.80;88.10
60473;DHT22;46318;52.716;6.444;2022-09-30T16:27:58;16.70;88.30
60473;DHT22;46318;52.716;6.444;2022-09-30T16:30:27;16.70;88.30
60473;DHT22;46318;52.716;6.444;2022-09-30T16:33:01;16.70;88.70
60473;DHT22;46318;52.716;6.444;2022-09-30T16:35:28;16.60;88.80
60473;DHT22;46318;52.716;6.444;2022-09-30T16:38:00;16.60;88.90
60473;DHT22;46318;52.716;6.444;2022-09-30T16:40:30;16.60;89.00
60473;DHT22;46318;52.716;6.444;2022-09-30T16:42:57;16.60;89.40
60473;DHT22;46318;52.716;6.444;2022-09-30T16:45:24;16.50;89.50
60473;DHT22;46318;52.716;6.444;2022-09-30T16:47:51;16.50;89.80
60473;DHT22;46318;52.716;6.444;2022-09-30T16:50:27;16.50;90.00
60473;DHT22;46318;52.716;6.444;2022-09-30T16:53:05;16.40;90.00
60473;DHT22;46318;52.716;6.444;2022-09-30T16:55:31;16.40;90.10
60473;DHT22;46318;52.716;6.444;2022-09-30T16:57:57;16.30;90.60
60473;DHT22;46318;52.716;6.444;2022-09-30T17:00:27;16.30;90.30
60473;DHT22;46318;52.716;6.444;2022-09-30T17:02:54;16.30;90.40
60473;DHT22;46318;52.716;6.444;2022-09-30T17:05:25;16.20;90.50
60473;DHT22;46318;52.716;6.444;2022-09-30T17:07:54;16.20;90.60
60473;DHT22;46318;52.716;6.444;2022-09-30T17:10:27;16.10;90.60
60473;DHT22;46318;52.716;6.444;2022-09-30T17:12:58;16.10;90.70
60473;DHT22;46318;52.716;6.444;2022-09-30T17:15:27;16.00;90.90
60473;DHT22;46318;52.716;6.444;2022-09-30T17:17:55;16.00;90.90
60473;DHT22;46318;52.716;6.444;2022-09-30T17:20:22;16.00;91.10
60473;DHT22;46318;52.716;6.444;2022-09-30T17:22:48;15.90;91.20
60473;DHT22;46318;52.716;6.444;2022-09-30T17:25:16;15.90;91.30
60473;DHT22;46318;52.716;6.444;2022-09-30T17:27:45;15.80;91.30
60473;DHT22;46318;52.716;6.444;2022-09-30T17:30:13;15.70;91.40
60473;DHT22;46318;52.716;6.444;2022-09-30T17:32:40;15.70;91.50
60473;DHT22;46318;52.716;6.444;2022-09-30T17:35:07;15.70;91.60
60473;DHT22;46318;52.716;6.444;2022-09-30T17:37:33;15.60;91.70
60473;DHT22;46318;52.716;6.444;2022-09-30T17:39:59;15.60;91.80
60473;DHT22;46318;52.716;6.444;2022-09-30T17:42:25;15.50;91.80
60473;DHT22;46318;52.716;6.444;2022-09-30T17:45:10;15.50;92.00
60473;DHT22;46318;52.716;6.444;2022-09-30T17:47:39;15.40;92.10
60473;DHT22;46318;52.716;6.444;2022-09-30T17:50:06;15.40;92.20
60473;DHT22;46318;52.716;6.444;2022-09-30T17:52:32;15.30;92.30
60473;DHT22;46318;52.716;6.444;2022-09-30T17:54:59;15.30;92.40
60473;DHT22;46318;52.716;6.444;2022-09-30T17:57:26;15.20;92.40
60473;DHT22;46318;52.716;6.444;2022-09-30T17:59:52;15.20;92.50
60473;DHT22;46318;52.716;6.444;2022-09-30T18:02:18;15.10;92.60
60473;DHT22;46318;52.716;6.444;2022-09-30T18:04:45;15.10;92.70
60473;DHT22;46318;52.716;6.444;2022-09-30T18:07:11;15.00;92.80
60473;DHT22;46318;52.716;6.444;2022-09-30T18:09:38;15.00;92.90
60473;DHT22;46318;52.716;6.444;2022-09-30T18:12:06;14.90;93.00
60473;DHT22;46318;52.716;6.444;2022-09-30T18:14:32;14.90;93.10
60473;DHT22;46318;52.716;6.444;2022-09-30T18:17:02;14.90;93.10
60473;DHT22;46318;52.716;6.444;2022-09-30T18:19:28;14.80;93.30
60473;DHT22;46318;52.716;6.444;2022-09-30T18:21:54;14.80;93.30
60473;DHT22;46318;52.716;6.444;2022-09-30T18:24:20;14.80;93.40
60473;DHT22;46318;52.716;6.444;2022-09-30T18:27:06;14.70;93.40
60473;DHT22;46318;52.716;6.444;2022-09-30T18:29:31;14.70;93.50
60473;DHT22;46318;52.716;6.444;2022-09-30T18:31:57;14.60;93.60
60473;DHT22;46318;52.716;6.444;2022-09-30T18:34:23;14.60;93.70
60473;DHT22;46318;52.716;6.444;2022-09-30T18:36:49;14.60;94.30
60473;DHT22;46318;52.716;6.444;2022-09-30T18:39:15;14.50;93.90
60473;DHT22;46318;52.716;6.444;2022-09-30T18:41:40;14.50;93.90
60473;DHT22;46318;52.716;6.444;2022-09-30T18:44:10;14.50;94.00
60473;DHT22;46318;52.716;6.444;2022-09-30T18:46:35;14.40;94.10
60473;DHT22;46318;52.716;6.444;2022-09-30T18:49:02;14.40;94.20
60473;DHT22;46318;52.716;6.444;2022-09-30T18:51:28;14.40;94.20
60473;DHT22;46318;52.716;6.444;2022-09-30T18:53:56;14.30;94.30
60473;DHT22;46318;52.716;6.444;2022-09-30T18:56:28;14.30;94.40
60473;DHT22;46318;52.716;6.444;2022-09-30T18:59:00;14.20;94.50
60473;DHT22;46318;52.716;6.444;2022-09-30T19:01:29;14.20;94.50
60473;DHT22;46318;52.716;6.444;2022-09-30T19:03:55;14.20;94.60
60473;DHT22;46318;52.716;6.444;2022-09-30T19:06:21;14.10;94.60
60473;DHT22;46318;52.716;6.444;2022-09-30T19:08:47;14.10;94.70
60473;DHT22;46318;52.716;6.444;2022-09-30T19:11:15;14.10;94.80
60473;DHT22;46318;52.716;6.444;2022-09-30T19:13:44;14.00;94.80
60473;DHT22;46318;52.716;6.444;2022-09-30T19:16:13;14.00;94.90
60473;DHT22;46318;52.716;6.444;2022-09-30T19:18:43;14.00;94.90
60473;DHT22;46318;52.716;6.444;2022-09-30T19:21:12;13.90;95.40
60473;DHT22;46318;52.716;6.444;2022-09-30T19:23:39;13.90;95.10
60473;DHT22;46318;52.716;6.444;2022-09-30T19:26:06;13.90;95.10
60473;DHT22;46318;52.716;6.444;2022-09-30T19:28:34;13.90;95.20
60473;DHT22;46318;52.716;6.444;2022-09-30T19:31:13;13.80;95.30
60473;DHT22;46318;52.716;6.444;2022-09-30T19:33:41;13.80;95.40
60473;DHT22;46318;52.716;6.444;2022-09-30T19:36:12;13.80;95.40
60473;DHT22;46318;52.716;6.444;2022-09-30T19:38:42;13.70;95.50
60473;DHT22;46318;52.716;6.444;2022-09-30T19:41:10;13.70;95.70
60473;DHT22;46318;52.716;6.444;2022-09-30T19:43:37;13.70;95.40
60473;DHT22;46318;52.716;6.444;2022-09-30T19:46:06;13.70;95.60
60473;DHT22;46318;52.716;6.444;2022-09-30T19:48:35;13.60;95.60
60473;DHT22;46318;52.716;6.444;2022-09-30T19:51:12;13.60;95.60